createdAt,value
2023-01-31T00:01:58.693Z,7.42
2023-01-31T00:04:27.101Z,7.64
2023-01-31T00:06:55.442Z,7.66
2023-01-31T00:09:23.786Z,7.49
2023-01-31T00:11:53.408Z,7.81
2023-01-31T00:14:23.143Z,7.68
2023-01-31T00:16:52.297Z,7.47
2023-01-31T00:19:20.702Z,7.93
2023-01-31T00:21:49.075Z,7.91
2023-01-31T00:24:17.436Z,7.70
2023-01-31T00:26:46.043Z,7.78
2023-01-31T00:29:14.387Z,7.88
2023-01-31T00:31:44.320Z,7.79
2023-01-31T00:34:12.642Z,8.32
2023-01-31T00:36:41.083Z,7.47
2023-01-31T00:39:09.792Z,7.47
2023-01-31T00:41:39.578Z,7.73
2023-01-31T00:44:08.276Z,7.61
2023-01-31T00:46:36.848Z,7.71
2023-01-31T00:49:07.122Z,7.67
2023-01-31T00:51:35.961Z,7.69
2023-01-31T00:54:04.384Z,7.72
2023-01-31T00:56:32.795Z,7.55
2023-01-31T00:59:01.202Z,8.00
2023-01-31T01:01:30.195Z,7.78
2023-01-31T01:03:58.918Z,7.87
2023-01-31T01:06:29.197Z,7.91
2023-01-31T01:08:59.872Z,7.54
2023-01-31T01:11:30.539Z,7.74
2023-01-31T01:13:59.069Z,7.97
2023-01-31T01:16:29.088Z,7.60
2023-01-31T01:18:57.571Z,7.72
2023-01-31T01:21:28.991Z,7.68
2023-01-31T01:23:59.586Z,8.33
2023-01-31T01:26:28.695Z,8.35
2023-01-31T01:28:58.049Z,8.05
2023-01-31T01:31:30.475Z,8.47
2023-01-31T01:34:00.594Z,7.93
2023-01-31T01:36:30.595Z,8.21
2023-01-31T01:38:59.337Z,8.75
2023-01-31T01:41:27.578Z,8.70
2023-01-31T01:43:57.203Z,7.98
2023-01-31T01:46:29.453Z,8.06
2023-01-31T01:49:01.168Z,8.22
2023-01-31T01:51:32.049Z,8.04
2023-01-31T01:54:03.035Z,8.04
2023-01-31T01:56:34.250Z,7.69
2023-01-31T01:59:04.765Z,7.81
2023-01-31T02:01:36.058Z,7.85
2023-01-31T02:04:05.282Z,7.80
2023-01-31T02:06:34.947Z,7.37
2023-01-31T02:09:04.425Z,8.01
2023-01-31T02:11:33.255Z,7.84
2023-01-31T02:14:04.138Z,7.83
2023-01-31T02:16:32.846Z,7.74
2023-01-31T02:19:01.572Z,7.63
2023-01-31T02:22:04.948Z,7.87
2023-01-31T02:24:59.027Z,7.56
2023-01-31T02:28:02.577Z,7.68
2023-01-31T02:31:01.334Z,7.32
2023-01-31T02:33:32.439Z,7.38
2023-01-31T02:36:07.342Z,7.60
2023-01-31T02:38:46.862Z,7.19
2023-01-31T02:41:18.481Z,7.11
2023-01-31T02:44:11.462Z,7.64
2023-01-31T02:46:44.869Z,7.37
2023-01-31T02:49:34.521Z,7.25
2023-01-31T02:52:17.302Z,7.44
2023-01-31T02:55:09.018Z,7.25
2023-01-31T02:57:38.303Z,7.49
2023-01-31T03:00:08.168Z,7.07
2023-01-31T03:02:36.689Z,6.96
2023-01-31T03:05:06.917Z,7.11
2023-01-31T03:07:37.989Z,7.22
2023-01-31T03:10:17.336Z,7.28
2023-01-31T03:12:59.805Z,7.01
2023-01-31T03:15:59.946Z,7.19
2023-01-31T03:18:30.639Z,6.89
2023-01-31T03:21:01.972Z,7.05
2023-01-31T03:23:31.799Z,7.09
2023-01-31T03:26:01.206Z,7.35
2023-01-31T03:28:32.753Z,6.97
2023-01-31T03:31:04.198Z,7.08
2023-01-31T03:33:35.308Z,7.10
2023-01-31T03:36:10.546Z,6.86
2023-01-31T03:38:45.261Z,6.98
2023-01-31T03:41:17.544Z,7.16
2023-01-31T03:43:52.153Z,6.84
2023-01-31T03:46:23.926Z,6.87
2023-01-31T03:48:54.760Z,6.94
2023-01-31T03:51:28.575Z,7.02
2023-01-31T03:54:00.836Z,6.78
2023-01-31T03:56:32.526Z,7.11
2023-01-31T03:59:04.923Z,6.92
2023-01-31T04:01:35.183Z,7.10
2023-01-31T04:04:06.816Z,7.05
2023-01-31T04:06:37.004Z,6.74
2023-01-31T04:09:05.508Z,6.79
2023-01-31T04:11:38.337Z,6.89
2023-01-31T04:14:06.796Z,6.78
2023-01-31T04:16:35.334Z,6.62
2023-01-31T04:19:03.593Z,6.72
2023-01-31T04:21:32.192Z,7.04
2023-01-31T04:24:01.997Z,6.69
2023-01-31T04:26:30.264Z,6.82
2023-01-31T04:28:58.598Z,6.90
2023-01-31T04:31:27.104Z,7.05
2023-01-31T04:33:56.130Z,7.01
2023-01-31T04:36:24.444Z,6.63
2023-01-31T04:38:52.764Z,7.27
2023-01-31T04:41:22.438Z,6.89
2023-01-31T04:43:50.709Z,6.56
2023-01-31T04:46:19.068Z,6.86
2023-01-31T04:48:47.398Z,6.93
2023-01-31T04:51:15.672Z,6.84
2023-01-31T04:53:44.582Z,6.78
2023-01-31T04:56:12.906Z,6.66
2023-01-31T04:58:43.515Z,6.94
2023-01-31T05:01:11.707Z,6.95
2023-01-31T05:03:40.019Z,7.06
2023-01-31T05:06:08.596Z,6.70
2023-01-31T05:08:36.864Z,7.03
2023-01-31T05:11:07.518Z,6.61
2023-01-31T05:13:38.212Z,6.82
2023-01-31T05:16:10.752Z,6.89
2023-01-31T05:18:39.732Z,6.77
2023-01-31T05:21:08.856Z,7.12
2023-01-31T05:23:37.360Z,6.54
2023-01-31T05:26:06.264Z,6.44
2023-01-31T05:28:34.564Z,6.72
2023-01-31T05:31:04.381Z,6.81
2023-01-31T05:33:34.523Z,6.65
2023-01-31T05:36:03.840Z,6.81
2023-01-31T05:38:32.345Z,6.79
2023-01-31T05:41:00.626Z,6.93
2023-01-31T05:43:28.900Z,7.00
2023-01-31T05:45:57.187Z,7.16
2023-01-31T05:48:25.444Z,6.96
2023-01-31T05:50:55.080Z,7.07
2023-01-31T05:53:23.532Z,6.82
2023-01-31T05:55:51.803Z,6.81
2023-01-31T05:58:20.177Z,6.58
2023-01-31T06:00:48.451Z,7.13
2023-01-31T06:03:17.305Z,6.88
2023-01-31T06:05:45.592Z,7.13
2023-01-31T06:08:15.247Z,6.56
2023-01-31T06:10:43.509Z,6.85
2023-01-31T06:13:11.771Z,6.90
2023-01-31T06:15:44.244Z,6.75
2023-01-31T06:18:13.280Z,6.65
2023-01-31T06:20:41.612Z,6.71
2023-01-31T06:23:09.871Z,6.33
2023-01-31T06:25:39.535Z,6.63
2023-01-31T06:28:07.800Z,6.78
2023-01-31T06:30:37.036Z,6.77
2023-01-31T06:33:05.346Z,6.77
2023-01-31T06:35:34.132Z,6.91
2023-01-31T06:38:02.385Z,6.74
2023-01-31T06:40:30.844Z,6.44
2023-01-31T06:43:00.762Z,6.70
2023-01-31T06:45:29.228Z,6.84
2023-01-31T06:47:57.573Z,6.86
2023-01-31T06:50:25.838Z,6.90
2023-01-31T06:52:54.412Z,6.81
2023-01-31T06:55:22.950Z,6.71
2023-01-31T06:57:51.909Z,6.86
2023-01-31T07:00:22.045Z,6.77
2023-01-31T07:02:50.306Z,6.76
2023-01-31T07:05:19.704Z,7.22
2023-01-31T07:07:49.793Z,6.36
2023-01-31T07:10:18.670Z,6.70
2023-01-31T07:12:46.937Z,7.07
2023-01-31T07:15:15.241Z,6.77
2023-01-31T07:17:45.245Z,7.06
2023-01-31T07:20:14.125Z,6.87
2023-01-31T07:22:42.467Z,6.75
2023-01-31T07:25:11.816Z,6.69
2023-01-31T07:27:40.048Z,6.63
2023-01-31T07:30:09.317Z,6.66
2023-01-31T07:32:37.627Z,6.85
2023-01-31T07:35:08.608Z,6.89
2023-01-31T07:37:37.015Z,6.93
2023-01-31T07:40:06.215Z,6.57
2023-01-31T07:42:34.457Z,6.92
2023-01-31T07:45:17.007Z,6.81
2023-01-31T07:47:50.600Z,6.69
2023-01-31T07:50:21.522Z,6.98
2023-01-31T07:52:50.901Z,7.29
2023-01-31T07:55:19.526Z,7.18
2023-01-31T07:57:48.479Z,7.34
2023-01-31T08:00:35.109Z,7.31
2023-01-31T08:03:23.031Z,7.13
2023-01-31T08:05:52.645Z,7.31
2023-01-31T08:08:20.907Z,7.72
2023-01-31T08:10:49.250Z,7.15
2023-01-31T08:13:17.551Z,7.35
2023-01-31T08:15:45.884Z,7.08
2023-01-31T08:18:14.185Z,7.00
2023-01-31T08:20:42.553Z,7.55
2023-01-31T08:23:12.255Z,7.05
2023-01-31T08:25:40.771Z,8.02
2023-01-31T08:28:09.105Z,7.92
2023-01-31T08:30:41.312Z,7.31
2023-01-31T08:33:10.329Z,7.69
2023-01-31T08:35:39.161Z,7.81
2023-01-31T08:38:16.369Z,7.63
2023-01-31T08:40:46.476Z,7.44
2023-01-31T08:43:14.974Z,8.08
2023-01-31T08:45:43.363Z,7.44
2023-01-31T08:48:11.700Z,7.34
2023-01-31T08:50:40.646Z,7.72
2023-01-31T08:53:08.994Z,8.06
2023-01-31T08:55:38.083Z,7.56
2023-01-31T08:58:07.829Z,7.97
2023-01-31T09:00:36.108Z,8.63
2023-01-31T09:03:04.429Z,8.19
2023-01-31T09:05:33.581Z,8.18
2023-01-31T09:08:01.951Z,8.65
2023-01-31T09:10:30.273Z,8.73
2023-01-31T09:13:00.458Z,8.76
2023-01-31T09:15:30.085Z,8.92
2023-01-31T09:17:58.371Z,8.55
2023-01-31T09:20:26.641Z,7.82
2023-01-31T09:22:54.965Z,8.45
2023-01-31T09:25:37.410Z,8.24
2023-01-31T09:28:11.047Z,8.67
2023-01-31T09:30:40.735Z,8.78
2023-01-31T09:33:09.097Z,8.65
2023-01-31T09:35:37.372Z,8.82
2023-01-31T09:38:05.708Z,8.85
2023-01-31T09:40:35.494Z,8.64
2023-01-31T09:43:05.161Z,8.86
2023-01-31T09:45:34.602Z,8.76
2023-01-31T09:48:04.472Z,8.90
2023-01-31T09:50:36.923Z,8.50
2023-01-31T09:53:05.303Z,8.78
2023-01-31T09:55:38.006Z,8.46
2023-01-31T09:58:13.424Z,8.79
2023-01-31T10:00:48.535Z,8.97
2023-01-31T10:03:42.119Z,9.69
2023-01-31T10:06:15.307Z,9.26
2023-01-31T10:08:51.353Z,9.36
2023-01-31T10:11:29.295Z,9.32
2023-01-31T10:14:00.866Z,9.17
2023-01-31T10:16:32.766Z,9.46
2023-01-31T10:19:05.109Z,9.13
2023-01-31T10:21:37.335Z,9.44
2023-01-31T10:24:10.603Z,8.95
2023-01-31T10:26:41.559Z,8.59
2023-01-31T10:29:14.945Z,9.17
2023-01-31T10:31:46.020Z,9.33
2023-01-31T10:34:19.075Z,9.49
2023-01-31T10:36:51.297Z,8.91
2023-01-31T10:39:22.484Z,9.73
2023-01-31T10:42:05.023Z,9.81
2023-01-31T10:44:43.681Z,8.49
2023-01-31T10:47:14.477Z,9.06
2023-01-31T10:49:46.509Z,9.25
2023-01-31T10:52:33.344Z,9.13
2023-01-31T10:55:09.225Z,9.38
2023-01-31T10:57:37.594Z,9.51
2023-01-31T11:00:07.344Z,8.96
2023-01-31T11:02:35.777Z,9.41
2023-01-31T11:05:05.923Z,9.20
2023-01-31T11:07:34.308Z,9.17
2023-01-31T11:10:22.463Z,8.94
2023-01-31T11:12:55.290Z,9.68
2023-01-31T11:15:25.749Z,9.42
2023-01-31T11:17:54.407Z,9.17
2023-01-31T11:20:26.768Z,9.14
2023-01-31T11:22:55.880Z,9.48
2023-01-31T11:25:26.644Z,9.64
2023-01-31T11:27:57.764Z,9.49
2023-01-31T11:30:29.992Z,9.73
2023-01-31T11:32:58.837Z,9.82
2023-01-31T11:35:30.682Z,9.68
2023-01-31T11:38:01.594Z,9.79
2023-01-31T11:40:33.740Z,9.71
2023-01-31T11:43:03.240Z,9.71
2023-01-31T11:45:33.440Z,9.43
2023-01-31T11:48:08.628Z,9.70
2023-01-31T11:50:40.541Z,8.99
2023-01-31T11:53:17.964Z,9.03
2023-01-31T11:55:47.259Z,9.12
2023-01-31T11:58:19.489Z,8.95
2023-01-31T12:00:54.757Z,9.10
2023-01-31T12:03:23.578Z,9.32
2023-01-31T12:06:01.665Z,9.48
2023-01-31T12:08:32.009Z,9.06
2023-01-31T12:11:00.774Z,8.73
2023-01-31T12:13:29.147Z,9.09
2023-01-31T12:16:00.246Z,8.70
2023-01-31T12:18:38.232Z,8.73
2023-01-31T12:21:15.503Z,9.06
2023-01-31T12:23:54.087Z,9.18
2023-01-31T12:26:28.206Z,9.25
2023-01-31T12:29:07.413Z,8.97
2023-01-31T12:31:43.600Z,9.50
2023-01-31T12:34:22.054Z,9.02
2023-01-31T12:37:03.832Z,9.12
2023-01-31T12:39:41.920Z,9.13
2023-01-31T12:42:25.053Z,9.62
2023-01-31T12:44:59.228Z,9.27
2023-01-31T12:48:01.100Z,9.38
2023-01-31T12:50:31.925Z,9.14
2023-01-31T12:53:18.409Z,9.32
2023-01-31T12:55:52.150Z,8.58
2023-01-31T12:58:35.884Z,8.92
2023-01-31T13:01:06.834Z,9.31
2023-01-31T13:03:45.314Z,8.90
2023-01-31T13:06:16.203Z,8.88
2023-01-31T13:09:06.428Z,9.24
2023-01-31T13:11:39.353Z,9.24
2023-01-31T13:14:13.736Z,9.40
2023-01-31T13:16:44.210Z,9.77
2023-01-31T13:19:17.297Z,9.53
2023-01-31T13:21:47.987Z,9.04
2023-01-31T13:24:18.297Z,9.19
2023-01-31T13:26:48.570Z,9.05
2023-01-31T13:29:19.857Z,9.42
2023-01-31T13:31:50.287Z,9.40
2023-01-31T13:34:22.452Z,9.11
2023-01-31T13:36:53.344Z,9.43
2023-01-31T13:39:25.893Z,9.51
2023-01-31T13:41:54.199Z,9.55
2023-01-31T13:44:22.488Z,8.99
2023-01-31T13:46:53.661Z,9.40
2023-01-31T13:49:26.331Z,9.24
2023-01-31T13:51:57.004Z,9.11
2023-01-31T13:54:29.070Z,9.38
2023-01-31T13:56:59.393Z,8.73
2023-01-31T13:59:30.623Z,9.32
2023-01-31T14:02:00.985Z,9.26
2023-01-31T14:04:39.161Z,8.87
2023-01-31T14:07:19.945Z,8.95
2023-01-31T14:10:21.730Z,9.08
2023-01-31T14:13:38.506Z,8.86
2023-01-31T14:16:35.261Z,9.44
2023-01-31T14:19:04.196Z,9.22
2023-01-31T14:21:58.089Z,9.09
2023-01-31T14:25:05.233Z,9.95
2023-01-31T14:27:36.004Z,9.55
2023-01-31T14:30:35.885Z,10.32
2023-01-31T14:33:08.149Z,9.71
2023-01-31T14:35:53.835Z,9.60
2023-01-31T14:38:29.165Z,9.68
2023-01-31T14:41:03.217Z,9.68
2023-01-31T14:43:43.177Z,9.28
2023-01-31T14:46:24.732Z,8.99
2023-01-31T14:49:24.656Z,9.17
2023-01-31T14:52:08.901Z,8.85
2023-01-31T14:55:06.965Z,8.71
2023-01-31T14:57:41.626Z,8.76
2023-01-31T15:00:20.391Z,8.78
2023-01-31T15:02:54.294Z,8.86
2023-01-31T15:05:39.104Z,8.47
2023-01-31T15:08:54.912Z,8.65
2023-01-31T15:11:42.990Z,8.61
2023-01-31T15:14:34.184Z,8.61
2023-01-31T15:17:06.733Z,8.46
2023-01-31T15:19:46.041Z,8.95
2023-01-31T15:22:15.170Z,8.94
2023-01-31T15:24:46.575Z,8.56
2023-01-31T15:27:20.077Z,8.56
2023-01-31T15:29:52.839Z,8.64
2023-01-31T15:32:23.061Z,8.50
2023-01-31T15:34:57.369Z,8.93
2023-01-31T15:37:29.905Z,9.18
2023-01-31T15:40:00.880Z,9.25
2023-01-31T15:42:31.873Z,9.47
2023-01-31T15:45:23.240Z,9.68
2023-01-31T15:48:02.439Z,8.88
2023-01-31T15:50:32.620Z,8.93
2023-01-31T15:53:04.816Z,8.96
2023-01-31T15:55:34.572Z,8.67
2023-01-31T15:58:06.932Z,8.73
2023-01-31T16:00:36.592Z,9.19
2023-01-31T16:03:07.999Z,8.64
2023-01-31T16:05:38.689Z,8.73
2023-01-31T16:08:07.170Z,9.03
2023-01-31T16:10:35.411Z,8.54
2023-01-31T16:13:05.075Z,8.52
2023-01-31T16:15:33.495Z,8.78
2023-01-31T16:18:03.531Z,8.47
2023-01-31T16:20:46.500Z,8.63
2023-01-31T16:23:38.685Z,8.67
2023-01-31T16:26:10.570Z,8.85
2023-01-31T16:28:42.396Z,8.84
2023-01-31T16:31:12.264Z,8.69
2023-01-31T16:33:41.933Z,8.56
2023-01-31T16:36:15.801Z,8.68
2023-01-31T16:38:56.922Z,8.62
2023-01-31T16:41:42.103Z,8.61
2023-01-31T16:44:16.676Z,8.68
2023-01-31T16:46:46.495Z,8.49
2023-01-31T16:49:25.856Z,8.94
2023-01-31T16:51:57.080Z,8.72
2023-01-31T16:54:26.920Z,8.54
2023-01-31T16:57:22.349Z,8.56
2023-01-31T16:59:53.638Z,8.51
2023-01-31T17:02:25.245Z,8.60
2023-01-31T17:04:56.283Z,8.48
2023-01-31T17:07:26.647Z,8.86
2023-01-31T17:09:56.774Z,8.27
2023-01-31T17:12:27.419Z,8.23
2023-01-31T17:15:00.876Z,8.27
2023-01-31T17:17:35.109Z,8.66
2023-01-31T17:20:03.416Z,8.63
2023-01-31T17:22:31.903Z,8.49
2023-01-31T17:25:00.323Z,8.59
2023-01-31T17:27:28.563Z,8.08
2023-01-31T17:29:58.224Z,8.63
2023-01-31T17:32:26.502Z,8.61
2023-01-31T17:34:54.760Z,8.22
2023-01-31T17:37:31.169Z,8.56
2023-01-31T17:40:00.936Z,9.03
2023-01-31T17:42:29.239Z,8.80
2023-01-31T17:44:58.855Z,8.83
2023-01-31T17:47:27.701Z,8.73
2023-01-31T17:49:57.455Z,8.45
2023-01-31T17:52:25.890Z,8.59
2023-01-31T17:54:54.166Z,8.71
2023-01-31T17:57:22.460Z,8.49
2023-01-31T17:59:50.723Z,8.49
2023-01-31T18:02:20.705Z,8.50
2023-01-31T18:04:48.928Z,8.70
2023-01-31T18:07:17.692Z,8.50
2023-01-31T18:09:45.898Z,8.70
2023-01-31T18:12:14.117Z,8.83
2023-01-31T18:14:42.334Z,8.46
2023-01-31T18:17:10.811Z,8.21
2023-01-31T18:19:40.480Z,8.57
2023-01-31T18:22:08.783Z,8.85
2023-01-31T18:24:37.037Z,8.67
2023-01-31T18:27:05.603Z,8.28
2023-01-31T18:29:33.898Z,8.54
2023-01-31T18:32:06.195Z,8.50
2023-01-31T18:34:34.681Z,8.66
2023-01-31T18:37:15.242Z,8.96
2023-01-31T18:39:43.500Z,8.74
2023-01-31T18:42:11.867Z,9.05
2023-01-31T18:44:40.152Z,8.52
2023-01-31T18:47:08.492Z,8.69
2023-01-31T18:49:36.976Z,8.62
2023-01-31T18:52:07.375Z,8.34
2023-01-31T18:54:37.464Z,8.38
2023-01-31T18:57:06.063Z,8.51
2023-01-31T18:59:34.638Z,8.55
2023-01-31T19:02:03.076Z,8.46
2023-01-31T19:04:31.514Z,8.41
2023-01-31T19:06:59.813Z,8.44
2023-01-31T19:09:29.430Z,8.71
2023-01-31T19:11:57.698Z,8.66
2023-01-31T19:14:25.970Z,8.34
2023-01-31T19:16:54.367Z,8.23
2023-01-31T19:19:22.674Z,8.69
2023-01-31T19:21:50.908Z,8.51
2023-01-31T19:24:19.167Z,8.32
2023-01-31T19:26:48.881Z,8.28
2023-01-31T19:29:17.535Z,8.55
2023-01-31T19:31:46.200Z,8.27
2023-01-31T19:34:14.464Z,8.78
2023-01-31T19:36:44.710Z,8.66
2023-01-31T19:39:13.773Z,8.60
2023-01-31T19:41:43.057Z,8.57
2023-01-31T19:44:12.872Z,9.00
2023-01-31T19:46:41.288Z,8.51
2023-01-31T19:49:09.653Z,8.60
2023-01-31T19:51:38.242Z,8.47
2023-01-31T19:54:06.985Z,8.46
2023-01-31T19:56:35.271Z,8.78
2023-01-31T19:59:03.737Z,8.69
2023-01-31T20:01:33.732Z,8.55
2023-01-31T20:04:02.224Z,8.80
2023-01-31T20:06:32.953Z,8.55
2023-01-31T20:09:04.339Z,8.66
2023-01-31T20:11:34.496Z,8.50
2023-01-31T20:14:02.740Z,8.84
2023-01-31T20:16:31.072Z,8.37
2023-01-31T20:19:03.700Z,8.74
2023-01-31T20:21:32.139Z,8.42
2023-01-31T20:24:00.671Z,9.03
2023-01-31T20:26:29.873Z,8.93
2023-01-31T20:28:58.371Z,8.74
2023-01-31T20:31:26.736Z,8.54
2023-01-31T20:33:55.601Z,8.89
2023-01-31T20:36:25.224Z,8.57
2023-01-31T20:38:54.181Z,8.58
2023-01-31T20:41:22.857Z,8.86
2023-01-31T20:43:51.565Z,8.59
2023-01-31T20:46:20.295Z,9.09
2023-01-31T20:48:48.612Z,8.50
2023-01-31T20:51:16.839Z,8.79
2023-01-31T20:53:46.552Z,8.72
2023-01-31T20:56:15.632Z,8.62
2023-01-31T20:58:44.758Z,9.20
2023-01-31T21:01:13.767Z,8.80
2023-01-31T21:03:42.403Z,8.61
2023-01-31T21:06:10.899Z,8.51
2023-01-31T21:08:40.932Z,8.88
2023-01-31T21:11:12.505Z,8.70
2023-01-31T21:13:42.036Z,8.55
2023-01-31T21:16:12.091Z,8.40
2023-01-31T21:18:43.988Z,8.38
2023-01-31T21:21:14.361Z,8.43
2023-01-31T21:23:43.204Z,8.32
2023-01-31T21:26:13.004Z,8.97
2023-01-31T21:28:41.313Z,8.15
2023-01-31T21:31:12.690Z,8.25
2023-01-31T21:33:41.278Z,8.52
2023-01-31T21:36:11.200Z,8.42
2023-01-31T21:38:39.909Z,8.32
2023-01-31T21:41:26.887Z,8.39
2023-01-31T21:43:57.302Z,8.49
2023-01-31T21:46:26.216Z,8.68
2023-01-31T21:48:54.536Z,8.58
2023-01-31T21:51:26.115Z,8.30
2023-01-31T21:53:54.787Z,8.57
2023-01-31T21:56:24.280Z,8.64
2023-01-31T21:58:56.189Z,8.48
2023-01-31T22:01:25.922Z,8.66
2023-01-31T22:03:55.081Z,8.46
2023-01-31T22:06:27.508Z,8.28
2023-01-31T22:08:58.029Z,8.86
2023-01-31T22:11:28.438Z,8.42
2023-01-31T22:13:58.079Z,8.35
2023-01-31T22:16:26.545Z,8.19
2023-01-31T22:18:54.848Z,7.99
2023-01-31T22:21:25.133Z,7.98
2023-01-31T22:23:54.736Z,8.01
2023-01-31T22:26:25.283Z,7.96
2023-01-31T22:28:53.631Z,7.94
2023-01-31T22:31:23.503Z,8.32
2023-01-31T22:33:52.210Z,8.07
2023-01-31T22:36:20.905Z,8.31
2023-01-31T22:38:49.249Z,8.28
2023-01-31T22:41:20.040Z,8.01
2023-01-31T22:43:50.044Z,7.72
2023-01-31T22:46:19.963Z,7.86
2023-01-31T22:48:50.309Z,8.20
2023-01-31T22:51:21.223Z,8.29
2023-01-31T22:53:49.683Z,8.32
2023-01-31T22:56:20.691Z,8.33
2023-01-31T22:58:49.302Z,8.19
2023-01-31T23:01:18.991Z,8.16
2023-01-31T23:03:49.356Z,8.06
2023-01-31T23:06:18.478Z,8.18
2023-01-31T23:08:46.763Z,7.95
2023-01-31T23:11:18.184Z,8.48
2023-01-31T23:13:46.995Z,8.16
2023-01-31T23:16:18.321Z,8.42
2023-01-31T23:18:47.060Z,8.77
2023-01-31T23:21:18.980Z,8.43
2023-01-31T23:23:47.479Z,8.21
2023-01-31T23:26:15.882Z,8.64
2023-01-31T23:28:44.137Z,8.76
2023-01-31T23:31:12.541Z,8.36
2023-01-31T23:33:40.828Z,8.70
2023-01-31T23:36:09.766Z,9.01
2023-01-31T23:38:39.360Z,8.61
2023-01-31T23:41:07.644Z,9.09
2023-01-31T23:43:35.907Z,9.02
2023-01-31T23:46:04.232Z,9.10
2023-01-31T23:48:32.750Z,8.99
2023-01-31T23:51:03.711Z,8.78
2023-01-31T23:53:31.984Z,9.54
2023-01-31T23:56:01.630Z,9.14
2023-01-31T23:58:29.871Z,9.06
